Time;durP1;ratioP1;P1;durP2;ratioP2;P2;SDS_P1;SDS_P2;PMS_P1;PMS_P2;Temp;Humidity;BMP_temperature;BMP_pressure;BME280_temperature;BME280_humidity;BME280_pressure;Samples;Min_cycle;Max_cycle;Signal;HPM_P1;HPM_P2
2022/04/21 00:03:25;;;;;;;36.47;22.67;;;9.20;99.90;;;;;;10268433;28;20240;-78
2022/04/21 00:08:27;;;;;;;36.73;20.30;;;9.60;99.90;;;;;;10292484;28;20296;-78
2022/04/21 00:13:31;;;;;;;44.07;24.17;;;9.80;99.90;;;;;;10289912;28;20268;-78
2022/04/21 00:18:34;;;;;;;29.40;20.60;;;9.90;99.90;;;;;;10305797;28;20323;-78
2022/04/21 00:23:36;;;;;;;38.60;23.90;;;9.80;99.90;;;;;;10291285;28;20603;-78
2022/04/21 00:28:39;;;;;;;37.17;19.47;;;10.20;99.90;;;;;;10290917;28;20685;-78
2022/04/21 00:33:41;;;;;;;35.77;23.10;;;10.20;99.90;;;;;;10278246;28;20366;-78
2022/04/21 00:38:44;;;;;;;43.27;23.97;;;10.10;99.90;;;;;;10271467;28;20654;-78
2022/04/21 00:43:46;;;;;;;35.77;23.27;;;9.70;99.90;;;;;;10289564;28;20252;-78
2022/04/21 00:48:49;;;;;;;34.80;23.60;;;9.80;99.90;;;;;;10280378;28;20237;-78
2022/04/21 00:53:53;;;;;;;18.23;12.10;;;10.00;99.90;;;;;;10251946;28;20250;-78
2022/04/21 00:58:57;;;;;;;41.80;24.37;;;10.90;99.90;;;;;;10268686;28;20257;-78
2022/04/21 01:04:01;;;;;;;41.77;24.13;;;10.20;99.90;;;;;;10303411;28;20248;-78
2022/04/21 01:09:03;;;;;;;38.67;23.03;;;9.90;99.90;;;;;;10286792;28;20276;-78
2022/04/21 01:14:07;;;;;;;39.93;25.33;;;9.80;99.90;;;;;;10288277;28;20276;-78
2022/04/21 01:19:09;;;;;;;37.13;23.20;;;9.50;99.90;;;;;;10285599;28;20258;-78
2022/04/21 01:24:12;;;;;;;44.70;25.80;;;10.20;99.90;;;;;;10274164;28;20241;-78
2022/04/21 01:29:14;;;;;;;5.93;5.23;;;10.10;99.90;;;;;;10288846;28;20328;-78
2022/04/21 01:34:17;;;;;;;9.43;7.10;;;11.30;99.90;;;;;;10277279;28;20244;-78
2022/04/21 01:44:41;;;;;;;9.23;7.23;;;12.40;99.90;;;;;;10286300;28;20202;-78
2022/04/21 01:49:43;;;;;;;19.03;13.20;;;12.60;99.90;;;;;;10288279;28;20246;-78
2022/04/21 01:54:50;;;;;;;16.60;9.97;;;12.00;99.90;;;;;;10274546;28;20702;-78
2022/04/21 01:59:53;;;;;;;12.63;8.70;;;12.70;99.90;;;;;;10287501;28;20273;-78
2022/04/21 02:04:56;;;;;;;18.83;13.80;;;12.70;99.90;;;;;;10288160;28;20229;-78
2022/04/21 02:09:59;;;;;;;22.97;15.20;;;11.30;99.90;;;;;;10269813;28;20250;-78
2022/04/21 02:15:02;;;;;;;25.30;16.20;;;10.90;99.90;;;;;;10301454;28;20265;-78
2022/04/21 02:20:07;;;;;;;22.30;15.33;;;10.40;99.90;;;;;;10262862;28;20261;-78
2022/04/21 02:25:10;;;;;;;10.00;7.10;;;9.70;99.90;;;;;;10280280;28;20303;-78
2022/04/21 02:30:16;;;;;;;21.50;13.80;;;11.00;99.90;;;;;;10261121;28;20604;-78
2022/04/21 02:35:19;;;;;;;10.10;7.83;;;10.90;99.90;;;;;;10281079;28;20615;-78
2022/04/21 02:40:22;;;;;;;19.43;14.40;;;11.50;99.90;;;;;;10302449;28;20272;-78
2022/04/21 02:45:24;;;;;;;14.93;9.67;;;11.40;99.90;;;;;;10284670;28;20205;-79
2022/04/21 02:50:27;;;;;;;23.57;14.83;;;11.60;99.90;;;;;;10286074;28;20221;-78
2022/04/21 03:00:51;;;;;;;21.27;15.10;;;9.80;99.90;;;;;;10285235;28;20237;-78
2022/04/21 03:05:53;;;;;;;18.77;13.93;;;10.40;99.90;;;;;;10263293;28;20246;-79
2022/04/21 03:10:56;;;;;;;18.03;12.27;;;10.20;99.90;;;;;;10265014;28;20290;-78
2022/04/21 03:15:58;;;;;;;23.70;16.33;;;10.20;99.90;;;;;;10268105;28;20344;-78
2022/04/21 03:26:22;;;;;;;20.93;16.10;;;9.60;99.90;;;;;;10248078;28;20213;-78
2022/04/21 03:31:25;;;;;;;19.13;13.00;;;9.70;99.90;;;;;;10285028;28;20702;-78
2022/04/21 03:36:27;;;;;;;22.13;15.97;;;10.50;99.90;;;;;;10286281;28;20261;-78
2022/04/21 03:41:30;;;;;;;26.53;18.40;;;10.70;99.90;;;;;;10292099;28;20306;-78
2022/04/21 03:46:32;;;;;;;26.67;18.77;;;10.00;99.90;;;;;;10293415;28;20319;-78
2022/04/21 03:51:35;;;;;;;28.00;18.17;;;10.10;99.90;;;;;;10289556;28;20282;-78
2022/04/21 03:56:37;;;;;;;26.67;18.90;;;10.00;99.90;;;;;;10292119;28;20253;-78
2022/04/21 04:01:40;;;;;;;30.23;19.97;;;9.80;99.90;;;;;;10289406;28;20273;-78
2022/04/21 04:12:05;;;;;;;32.80;19.97;;;9.70;99.90;;;;;;10290642;28;20252;-78
2022/04/21 04:17:08;;;;;;;34.37;20.50;;;9.60;99.90;;;;;;10287379;28;20268;-79
2022/04/21 04:22:12;;;;;;;35.23;22.30;;;9.90;99.90;;;;;;10284737;28;20230;-78
2022/04/21 04:27:15;;;;;;;37.17;24.23;;;9.80;99.90;;;;;;10286830;28;20241;-78
2022/04/21 04:32:17;;;;;;;33.93;21.37;;;9.60;99.90;;;;;;10277179;28;20245;-77
2022/04/21 04:37:20;;;;;;;38.57;21.93;;;10.40;99.90;;;;;;10290264;28;20269;-78
2022/04/21 04:42:23;;;;;;;40.17;24.07;;;10.50;99.90;;;;;;10270384;28;20308;-78
2022/04/21 04:47:25;;;;;;;32.33;22.37;;;10.00;99.90;;;;;;10294321;28;20213;-77
2022/04/21 04:52:28;;;;;;;37.83;23.00;;;9.60;99.90;;;;;;10295363;28;20694;-77
2022/04/21 04:57:31;;;;;;;33.07;19.53;;;9.90;99.90;;;;;;10296773;28;20237;-77
2022/04/21 05:02:36;;;;;;;34.67;23.60;;;9.90;99.90;;;;;;10291992;28;20202;-77
2022/04/21 05:07:39;;;;;;;47.67;31.43;;;10.40;99.90;;;;;;10286113;28;20346;-77
2022/04/21 05:12:41;;;;;;;34.40;21.20;;;10.80;99.90;;;;;;10284310;28;20269;-76
2022/04/21 05:17:44;;;;;;;45.37;26.60;;;10.60;99.90;;;;;;10288414;28;20654;-77
2022/04/21 05:23:07;;;;;;;39.27;24.17;;;10.60;99.90;;;;;;10289007;28;20285;-77
2022/04/21 05:28:11;;;;;;;39.80;22.40;;;10.90;99.90;;;;;;10286234;28;20308;-77
2022/04/21 05:33:20;;;;;;;14.30;8.97;;;11.60;99.90;;;;;;10293033;28;20268;-79
2022/04/21 05:38:24;;;;;;;38.50;22.87;;;12.30;99.90;;;;;;10279885;28;20233;-77
2022/04/21 05:43:41;;;;;;;45.20;23.60;;;12.20;99.90;;;;;;10290061;28;20214;-77
2022/04/21 05:48:45;;;;;;;49.53;26.10;;;12.10;99.90;;;;;;10266537;28;20214;-77
2022/04/21 05:53:48;;;;;;;54.67;28.87;;;13.00;99.90;;;;;;10299203;28;20209;-77
2022/04/21 05:58:51;;;;;;;52.03;29.77;;;12.10;99.90;;;;;;10302110;28;20273;-77
2022/04/21 06:03:54;;;;;;;37.00;21.63;;;11.60;99.90;;;;;;10293843;28;20241;-77
2022/04/21 06:08:56;;;;;;;62.47;31.43;;;11.90;99.90;;;;;;10327016;28;20272;-78
2022/04/21 06:13:59;;;;;;;49.67;26.60;;;11.70;99.90;;;;;;10332840;28;20230;-77
2022/04/21 06:19:02;;;;;;;43.63;23.90;;;13.40;99.90;;;;;;10337875;28;20222;-76
2022/04/21 06:24:04;;;;;;;64.13;32.07;;;13.60;99.90;;;;;;10317417;28;20268;-77
2022/04/21 06:29:07;;;;;;;49.40;26.97;;;12.50;99.90;;;;;;10308130;28;20234;-78
2022/04/21 06:34:09;;;;;;;42.33;25.23;;;12.90;99.90;;;;;;10310062;28;20217;-80
2022/04/21 06:39:12;;;;;;;46.83;25.97;;;13.40;99.90;;;;;;10317726;28;20258;-79
2022/04/21 06:49:35;;;;;;;43.13;24.33;;;13.90;99.90;;;;;;10309791;28;20194;-80
2022/04/21 06:54:38;;;;;;;46.27;25.37;;;14.00;99.90;;;;;;10338356;28;20198;-79
2022/04/21 06:59:41;;;;;;;44.80;27.67;;;14.40;99.90;;;;;;10342065;23;20240;-78
2022/04/21 07:04:43;;;;;;;37.90;22.30;;;14.50;99.90;;;;;;10311497;28;20689;-77
2022/04/21 07:09:46;;;;;;;35.70;22.90;;;14.60;99.90;;;;;;10324113;28;20201;-78
2022/04/21 07:14:49;;;;;;;52.63;29.13;;;14.70;99.90;;;;;;10316792;28;20245;-77
2022/04/21 07:19:52;;;;;;;45.17;24.13;;;13.60;99.90;;;;;;10305354;28;20306;-77
2022/04/21 07:24:55;;;;;;;46.33;28.30;;;13.10;99.90;;;;;;10333884;28;20634;-77
2022/04/21 07:29:58;;;;;;;37.03;21.20;;;13.40;99.90;;;;;;10295007;28;20273;-77
2022/04/21 07:35:01;;;;;;;37.17;21.80;;;14.30;99.90;;;;;;10313089;28;20217;-78
2022/04/21 07:40:05;;;;;;;32.10;20.23;;;14.60;99.90;;;;;;10313299;28;20302;-78
2022/04/21 07:45:08;;;;;;;41.17;25.30;;;14.90;99.90;;;;;;10315731;28;20274;-77
2022/04/21 07:50:10;;;;;;;37.57;22.57;;;14.30;99.20;;;;;;10293703;28;20205;-77
2022/04/21 07:55:16;;;;;;;28.83;18.53;;;13.00;99.90;;;;;;10293933;28;20308;-77
2022/04/21 08:00:19;;;;;;;39.10;25.03;;;13.30;99.90;;;;;;10306001;28;20301;-77
2022/04/21 08:05:22;;;;;;;27.70;18.70;;;12.70;99.90;;;;;;10331027;28;20244;-78
2022/04/21 08:10:28;;;;;;;33.17;20.90;;;13.70;99.90;;;;;;10272658;28;20585;-78
2022/04/21 08:15:32;;;;;;;32.13;20.83;;;13.30;99.90;;;;;;10303294;28;20213;-77
2022/04/21 08:20:35;;;;;;;32.43;20.60;;;14.20;99.90;;;;;;10310323;28;20781;-81
2022/04/21 08:36:34;;;;;;;27.00;17.07;;;15.00;99.90;;;;;;10311934;28;20252;-91
2022/04/21 08:41:45;;;;;;;25.53;17.40;;;14.40;99.90;;;;;;10294709;28;20218;-91
2022/04/21 08:46:49;;;;;;;23.23;15.77;;;14.80;99.90;;;;;;10279360;28;20261;-91
2022/04/21 08:51:52;;;;;;;25.67;18.33;;;13.40;99.90;;;;;;10294350;28;20206;-91
2022/04/21 08:56:54;;;;;;;21.20;15.17;;;13.60;99.90;;;;;;10290411;28;20204;-92
2022/04/21 09:02:00;;;;;;;18.40;13.60;;;13.90;99.90;;;;;;10324128;28;20399;-90
2022/04/21 09:07:18;;;;;;;36.37;14.77;;;14.00;99.90;;;;;;10318405;23;20268;-79
2022/04/21 09:12:21;;;;;;;49.10;13.97;;;14.00;99.90;;;;;;10297174;28;20299;-78
2022/04/21 09:17:24;;;;;;;29.83;12.30;;;14.50;99.90;;;;;;10272534;28;20257;-77
2022/04/21 09:22:32;;;;;;;23.83;11.00;;;15.20;99.90;;;;;;10313157;28;20287;-77
2022/04/21 09:27:42;;;;;;;19.43;10.37;;;15.60;99.90;;;;;;10328573;28;20276;-77
2022/04/21 09:32:57;;;;;;;32.10;9.97;;;15.90;99.90;;;;;;10329719;28;20277;-77
2022/04/21 09:38:04;;;;;;;11.60;8.37;;;16.20;99.90;;;;;;10326185;28;20734;-77
2022/04/21 09:43:07;;;;;;;23.53;8.93;;;16.20;99.90;;;;;;10301635;28;20310;-79
2022/04/21 09:48:10;;;;;;;27.17;8.90;;;16.30;99.90;;;;;;10309939;28;20244;-78
2022/04/21 09:53:12;;;;;;;16.73;8.90;;;16.50;99.90;;;;;;10322909;28;20751;-78
2022/04/21 09:58:15;;;;;;;12.23;7.87;;;16.60;99.90;;;;;;10326393;28;20721;-79
2022/04/21 10:03:20;;;;;;;11.00;7.30;;;;;;;;;;10269686;28;20644;-79
2022/04/21 10:08:23;;;;;;;9.83;6.90;;;17.30;99.90;;;;;;10303410;28;20349;-78
2022/04/21 10:13:26;;;;;;;12.47;6.97;;;16.80;99.90;;;;;;10309803;28;20244;-78
2022/04/21 10:18:28;;;;;;;15.27;7.57;;;17.10;99.90;;;;;;10306788;28;20303;-78
2022/04/21 10:23:33;;;;;;;7.77;5.70;;;16.90;99.90;;;;;;10293554;28;20311;-78
2022/04/21 10:28:42;;;;;;;11.47;6.03;;;16.80;95.10;;;;;;10320417;28;20244;-78
2022/04/21 10:34:06;;;;;;;6.80;5.20;;;17.00;99.90;;;;;;10291404;28;20237;-78
2022/04/21 10:39:12;;;;;;;7.73;5.50;;;17.00;97.30;;;;;;10316340;28;20647;-78
2022/04/21 10:44:15;;;;;;;10.10;5.80;;;17.40;99.90;;;;;;10323686;28;20683;-78
2022/04/21 10:49:56;;;;;;;8.00;5.70;;;17.40;99.90;;;;;;10327514;28;20243;-79
2022/04/21 11:00:29;;;;;;;6.40;5.33;;;16.90;99.90;;;;;;10331880;28;20299;-79
2022/04/21 11:05:39;;;;;;;12.93;6.57;;;16.90;99.60;;;;;;10330287;28;20731;-78
2022/04/21 11:10:44;;;;;;;9.60;5.93;;;17.80;99.90;;;;;;10338673;28;20241;-78
2022/04/21 11:15:50;;;;;;;8.73;5.67;;;17.80;99.90;;;;;;10324345;28;20241;-79
2022/04/21 11:21:13;;;;;;;8.47;5.07;;;;;;;;;;10313468;28;20778;-78
2022/04/21 11:26:16;;;;;;;5.97;5.37;;;18.20;99.90;;;;;;10325665;28;20284;-79
2022/04/21 11:31:21;;;;;;;7.10;5.13;;;18.20;98.30;;;;;;10328814;28;20251;-78
2022/04/21 11:36:37;;;;;;;7.13;5.43;;;18.10;99.90;;;;;;10330790;28;20686;-79
2022/04/21 11:41:44;;;;;;;10.50;5.10;;;17.60;99.90;;;;;;10365108;23;20317;-78
2022/04/21 11:46:47;;;;;;;10.87;5.30;;;17.90;99.90;;;;;;10331970;28;20240;-78
2022/04/21 11:51:53;;;;;;;8.60;5.40;;;17.70;99.90;;;;;;10311524;28;20245;-80
2022/04/21 11:56:56;;;;;;;5.80;5.20;;;18.10;99.90;;;;;;10326923;28;20245;-79
2022/04/21 12:07:20;;;;;;;7.20;4.47;;;17.40;99.90;;;;;;10305549;28;20624;-79
2022/04/21 12:12:22;;;;;;;11.07;5.80;;;17.60;97.20;;;;;;10332323;28;20736;-79
2022/04/21 12:17:29;;;;;;;6.33;4.77;;;17.50;99.90;;;;;;10277544;28;20229;-79
2022/04/21 12:22:32;;;;;;;4.70;4.20;;;17.00;90.20;;;;;;10300940;28;20677;-79
2022/04/21 12:27:38;;;;;;;5.93;5.00;;;17.40;96.80;;;;;;10312041;28;20346;-79
2022/04/21 12:32:47;;;;;;;5.77;5.07;;;17.30;99.90;;;;;;10298382;28;20273;-79
2022/04/21 12:43:16;;;;;;;8.07;5.70;;;16.90;82.30;;;;;;10292731;28;20758;-78
2022/04/21 12:48:23;;;;;;;8.43;6.80;;;17.50;96.80;;;;;;10318866;28;20236;-78
2022/04/21 12:53:30;;;;;;;6.53;5.03;;;17.10;90.50;;;;;;10303026;28;20247;-79
2022/04/21 12:58:32;;;;;;;6.90;5.00;;;17.60;99.90;;;;;;10313026;28;20259;-78
2022/04/21 13:03:36;;;;;;;8.87;7.43;;;17.80;99.90;;;;;;10308062;28;20295;-78
2022/04/21 13:08:38;;;;;;;13.77;7.63;;;16.50;89.20;;;;;;10315569;28;20289;-78
2022/04/21 13:13:41;;;;;;;10.17;7.47;;;15.70;91.40;;;;;;10295440;28;20718;-79
2022/04/21 13:18:45;;;;;;;5.53;5.00;;;16.50;88.70;;;;;;10304286;28;20251;-79
2022/04/21 13:23:47;;;;;;;12.87;6.57;;;16.60;94.30;;;;;;10302682;28;20256;-78
2022/04/21 13:28:50;;;;;;;11.13;6.50;;;15.30;85.00;;;;;;10292783;28;20691;-79
2022/04/21 13:33:54;;;;;;;7.00;6.10;;;14.90;89.90;;;;;;10288756;28;20246;-78
2022/04/21 13:38:58;;;;;;;9.77;6.47;;;16.30;93.30;;;;;;10275129;28;20261;-80
2022/04/21 13:44:01;;;;;;;8.57;6.33;;;15.90;88.50;;;;;;10274344;28;20260;-78
2022/04/21 13:49:24;;;;;;;6.97;6.07;;;14.80;89.00;;;;;;10295193;28;20240;-78
2022/04/21 13:54:26;;;;;;;5.83;5.23;;;15.00;90.50;;;;;;10304250;28;20249;-79
2022/04/21 13:59:29;;;;;;;9.27;6.07;;;14.80;99.90;;;;;;10305830;28;20295;-78
2022/04/21 14:04:31;;;;;;;6.03;5.47;;;14.20;90.80;;;;;;10282717;28;20634;-79
2022/04/21 14:09:34;;;;;;;7.27;4.50;;;14.30;91.60;;;;;;10291300;28;20237;-79
2022/04/21 14:14:36;;;;;;;7.53;4.70;;;14.10;90.40;;;;;;10254725;28;20594;-79
2022/04/21 14:19:39;;;;;;;5.80;5.30;;;14.30;90.70;;;;;;10282239;28;20646;-79
2022/04/21 14:24:43;;;;;;;6.83;5.33;;;14.40;91.30;;;;;;10287635;28;20233;-78
2022/04/21 14:29:46;;;;;;;5.10;4.67;;;13.90;91.00;;;;;;10291875;28;20275;-78
2022/04/21 14:34:49;;;;;;;4.67;4.27;;;14.00;92.00;;;;;;10300674;28;20248;-79
2022/04/21 14:45:13;;;;;;;7.80;5.13;;;;;;;;;;10309630;28;20236;-78
2022/04/21 14:50:19;;;;;;;11.30;5.17;;;13.70;91.20;;;;;;10303866;28;20236;-78
2022/04/21 14:55:21;;;;;;;5.83;4.47;;;13.50;91.30;;;;;;10309954;28;20669;-78
2022/04/21 15:00:24;;;;;;;7.83;4.87;;;13.50;91.90;;;;;;10286745;28;20261;-78
2022/04/21 15:05:26;;;;;;;5.37;4.30;;;13.50;92.30;;;;;;10306817;28;20233;-79
2022/04/21 15:10:30;;;;;;;4.80;4.37;;;13.40;92.10;;;;;;10311012;28;20671;-78
2022/04/21 15:15:34;;;;;;;5.00;4.50;;;13.50;92.60;;;;;;10300916;28;20753;-79
2022/04/21 15:20:37;;;;;;;6.23;4.27;;;13.50;94.60;;;;;;10308486;28;20256;-78
2022/04/21 15:25:41;;;;;;;4.80;4.30;;;13.40;93.80;;;;;;10327249;28;20279;-78
2022/04/21 15:30:43;;;;;;;6.40;4.10;;;13.20;93.90;;;;;;10313097;28;20269;-79
2022/04/21 15:35:46;;;;;;;7.07;4.67;;;13.20;93.50;;;;;;10318303;28;20253;-78
2022/04/21 15:40:49;;;;;;;6.37;4.00;;;13.30;95.10;;;;;;10308435;28;20796;-78
2022/04/21 15:45:51;;;;;;;5.90;5.30;;;13.30;94.10;;;;;;10293344;28;20241;-79
2022/04/21 15:50:54;;;;;;;6.53;5.10;;;13.20;94.10;;;;;;10292097;28;20229;-80
2022/04/21 16:01:20;;;;;;;76.53;10.80;;;13.60;95.40;;;;;;10304155;28;20260;-79
2022/04/21 16:06:22;;;;;;;16.93;5.80;;;14.60;95.10;;;;;;10289116;28;20233;-78
2022/04/21 16:11:27;;;;;;;9.77;5.87;;;14.80;93.80;;;;;;10286373;28;20214;-78
2022/04/21 16:16:30;;;;;;;38.80;7.77;;;14.80;95.30;;;;;;10284370;28;20696;-78
2022/04/21 16:21:33;;;;;;;39.27;8.70;;;15.10;96.50;;;;;;10324935;28;20938;-78
2022/04/21 16:26:35;;;;;;;9.17;5.43;;;15.20;96.30;;;;;;10312091;28;20287;-78
2022/04/21 16:31:38;;;;;;;36.30;7.63;;;15.10;93.30;;;;;;10329467;28;20245;-78
2022/04/21 16:36:41;;;;;;;33.20;7.07;;;15.10;97.30;;;;;;10302849;28;20237;-78
2022/04/21 16:41:43;;;;;;;30.67;6.80;;;15.30;98.40;;;;;;10307803;28;20269;-87
2022/04/21 16:46:46;;;;;;;25.73;6.87;;;15.90;98.10;;;;;;10300603;28;20240;-82
2022/04/21 16:51:48;;;;;;;33.93;6.80;;;16.40;97.20;;;;;;10329103;28;20266;-84
2022/04/21 16:56:57;;;;;;;13.90;5.17;;;16.50;97.20;;;;;;10328969;28;20302;-86
2022/04/21 17:07:24;;;;;;;18.13;7.10;;;16.80;96.90;;;;;;10317912;28;20235;-77
2022/04/21 17:12:26;;;;;;;14.73;6.13;;;16.40;95.10;;;;;;10305361;28;20244;-77
2022/04/21 17:17:29;;;;;;;6.80;6.07;;;15.60;96.30;;;;;;10295706;28;20237;-77
2022/04/21 17:22:31;;;;;;;13.40;6.03;;;15.00;95.70;;;;;;10290038;28;20944;-79
2022/04/21 17:27:34;;;;;;;12.10;6.37;;;14.60;99.20;;;;;;10291075;28;20237;-78
2022/04/21 17:32:36;;;;;;;12.20;5.80;;;14.70;99.90;;;;;;10302525;28;20252;-77
2022/04/21 17:37:39;;;;;;;11.80;6.97;;;14.80;99.90;;;;;;10288505;28;20274;-78
2022/04/21 17:42:42;;;;;;;9.27;5.47;;;14.60;99.90;;;;;;10300819;28;20260;-78
2022/04/21 17:47:44;;;;;;;9.27;6.23;;;14.40;99.90;;;;;;10292912;28;20304;-78
2022/04/21 17:52:46;;;;;;;12.30;7.20;;;13.90;99.90;;;;;;10328469;28;20653;-78
2022/04/21 17:57:49;;;;;;;15.20;8.17;;;13.80;99.90;;;;;;10303547;28;20246;-78
2022/04/21 18:02:52;;;;;;;13.60;7.93;;;13.70;99.90;;;;;;10312609;28;20269;-78
2022/04/21 18:07:55;;;;;;;12.90;7.53;;;13.60;99.90;;;;;;10305686;28;20233;-76
2022/04/21 18:12:57;;;;;;;22.10;10.23;;;13.80;99.90;;;;;;10314711;28;20292;-77
2022/04/21 18:18:00;;;;;;;19.27;9.77;;;14.00;99.90;;;;;;10306079;28;20245;-76
2022/04/21 18:23:03;;;;;;;20.13;10.73;;;13.80;99.90;;;;;;10304929;28;20287;-76
2022/04/21 18:28:06;;;;;;;20.40;11.17;;;13.50;99.90;;;;;;10307159;28;20238;-78
2022/04/21 18:33:08;;;;;;;11.70;5.33;;;13.20;99.90;;;;;;10287968;28;20248;-78
2022/04/21 18:38:11;;;;;;;7.03;5.27;;;13.60;99.90;;;;;;9603144;28;10000151;-79
2022/04/21 18:43:13;;;;;;;16.13;5.00;;;14.80;99.90;;;;;;10287398;28;20736;-79
2022/04/21 18:48:16;;;;;;;10.20;5.73;;;15.20;99.90;;;;;;10283047;28;20269;-79
2022/04/21 18:53:20;;;;;;;10.43;4.20;;;15.30;99.90;;;;;;10288121;28;20639;-79
2022/04/21 18:58:25;;;;;;;14.07;4.30;;;15.40;99.90;;;;;;10287206;28;20304;-80
2022/04/21 19:03:28;;;;;;;21.13;14.00;;;15.60;99.90;;;;;;10271655;28;20317;-79
2022/04/21 19:13:52;;;;;;;72.63;41.90;;;14.70;99.90;;;;;;10311699;28;20294;-79
2022/04/21 19:18:55;;;;;;;36.30;21.17;;;14.30;99.90;;;;;;10288282;23;20259;-78
2022/04/21 19:23:58;;;;;;;30.13;16.57;;;14.20;99.90;;;;;;10272908;28;20336;-78
2022/04/21 19:29:02;;;;;;;42.13;23.43;;;14.10;99.90;;;;;;10247177;28;20312;-78
2022/04/21 19:34:08;;;;;;;38.50;25.37;;;13.90;99.90;;;;;;10288670;28;20302;-79
2022/04/21 19:39:12;;;;;;;8.43;6.97;;;13.50;99.90;;;;;;10288053;28;20244;-78
2022/04/21 19:44:14;;;;;;;41.80;23.83;;;13.90;99.90;;;;;;10249708;28;20340;-78
2022/04/21 19:49:17;;;;;;;49.97;27.67;;;14.00;99.90;;;;;;10262658;28;20241;-77
2022/04/21 19:54:19;;;;;;;47.97;28.60;;;13.10;99.90;;;;;;10268431;28;20249;-78
2022/04/21 19:59:21;;;;;;;53.27;29.27;;;12.70;99.90;;;;;;10291275;28;20253;-77
2022/04/21 20:04:25;;;;;;;45.73;28.30;;;12.20;99.90;;;;;;10263893;28;20249;-77
2022/04/21 20:09:27;;;;;;;46.47;27.33;;;12.00;99.90;;;;;;10288445;28;20285;-77
2022/04/21 20:14:29;;;;;;;43.83;29.30;;;10.20;99.90;;;;;;10271627;28;20240;-77
2022/04/21 20:30:14;;;;;;;44.40;26.00;;;9.80;99.90;;;;;;10275332;28;20632;-77
2022/04/21 20:35:17;;;;;;;42.03;26.27;;;9.90;99.90;;;;;;10277025;28;20686;-77
2022/04/21 20:40:20;;;;;;;51.67;28.30;;;9.70;99.90;;;;;;10250703;28;20233;-77
2022/04/21 20:45:23;;;;;;;57.83;31.93;;;9.60;99.90;;;;;;10278068;28;20301;-77
2022/04/21 20:50:26;;;;;;;52.63;29.70;;;9.50;99.90;;;;;;10261069;28;20233;-77
2022/04/21 20:55:29;;;;;;;50.07;30.23;;;9.50;99.90;;;;;;10258212;28;20242;-77
2022/04/21 21:00:31;;;;;;;21.67;12.57;;;9.60;99.90;;;;;;10267602;28;20710;-77
2022/04/21 21:05:35;;;;;;;15.70;10.47;;;10.40;99.90;;;;;;10266405;28;20886;-77
2022/04/21 21:10:37;;;;;;;31.60;17.53;;;11.00;99.90;;;;;;10241627;28;20982;-77
2022/04/21 21:15:40;;;;;;;15.77;10.07;;;11.30;99.90;;;;;;10257041;28;20292;-77
2022/04/21 21:20:42;;;;;;;16.73;11.00;;;12.00;99.90;;;;;;10258538;28;20296;-77
2022/04/21 21:25:45;;;;;;;17.23;10.93;;;13.10;99.90;;;;;;10268284;28;20616;-78
2022/04/21 21:30:47;;;;;;;42.30;24.40;;;13.20;99.90;;;;;;10247291;28;20215;-77
2022/04/21 21:35:50;;;;;;;65.77;38.23;;;12.10;99.90;;;;;;10258531;28;20708;-78
2022/04/21 21:40:52;;;;;;;67.20;37.67;;;12.60;99.90;;;;;;10261878;28;20261;-77
2022/04/21 21:45:54;;;;;;;19.50;13.53;;;10.50;99.90;;;;;;10245158;28;20622;-77
2022/04/21 21:56:18;;;;;;;48.87;26.50;;;12.00;99.90;;;;;;10264568;28;20237;-77
2022/04/21 22:01:21;;;;;;;44.70;26.93;;;12.00;99.90;;;;;;10255594;28;20877;-77
2022/04/21 22:06:24;;;;;;;27.43;16.80;;;11.90;99.90;;;;;;10263422;28;20296;-77
2022/04/21 22:11:26;;;;;;;26.47;17.77;;;12.20;99.90;;;;;;10265966;28;20293;-77
2022/04/21 22:16:31;;;;;;;19.33;13.30;;;12.20;99.90;;;;;;10245113;28;20735;-76
2022/04/21 22:21:34;;;;;;;62.13;32.67;;;12.80;99.90;;;;;;10245360;28;20269;-77
2022/04/21 22:26:37;;;;;;;59.33;34.60;;;13.20;99.90;;;;;;10262386;28;20218;-77
2022/04/21 22:31:39;;;;;;;57.50;33.83;;;12.10;99.90;;;;;;10249368;28;20238;-77
2022/04/21 22:36:42;;;;;;;58.93;33.43;;;11.50;99.90;;;;;;10263131;28;20249;-77
2022/04/21 22:41:44;;;;;;;34.23;21.77;;;11.60;99.90;;;;;;10265881;28;20285;-78
2022/04/21 22:46:47;;;;;;;55.63;30.17;;;11.90;99.90;;;;;;10275418;28;20241;-77
2022/04/21 22:51:51;;;;;;;60.43;34.97;;;12.60;99.90;;;;;;10269936;28;20264;-78
2022/04/21 22:56:54;;;;;;;59.67;37.40;;;11.20;99.90;;;;;;10285126;28;20242;-77
2022/04/21 23:01:57;;;;;;;61.87;38.93;;;11.10;99.90;;;;;;10258769;28;20284;-78
2022/04/21 23:06:59;;;;;;;67.40;40.47;;;9.20;99.90;;;;;;10253549;28;20247;-78
2022/04/21 23:17:23;;;;;;;81.80;44.47;;;8.50;99.90;;;;;;10278555;28;20691;-77
2022/04/21 23:22:26;;;;;;;78.37;41.97;;;8.50;99.90;;;;;;10283054;28;20270;-77
2022/04/21 23:27:33;;;;;;;67.03;41.73;;;8.50;99.90;;;;;;10237896;28;20297;-78
2022/04/21 23:32:35;;;;;;;68.87;42.20;;;8.40;99.90;;;;;;10243089;28;20624;-78
2022/04/21 23:42:59;;;;;;;71.87;41.97;;;8.10;99.90;;;;;;10279048;28;20700;-78
2022/04/21 23:48:01;;;;;;;70.77;41.03;;;8.10;99.90;;;;;;10281344;28;20234;-77
2022/04/21 23:53:04;;;;;;;71.50;40.07;;;8.20;99.90;;;;;;10257015;28;20229;-77
2022/04/21 23:58:07;;;;;;;70.00;42.20;;;8.10;99.90;;;;;;10265697;28;20662;-77
